Latest Coastal Weather Observations for Orbost

IDV60701

Issued at 5:21 am EST Thursday 5 May 2016 (issued every 10 minutes, with the page automatically refreshed every 10 minutes)

About coastal observations | Map of coastal stations | Coastal observations for VIC | Marine services | Other Formats
Station Details ID: 084145 Name: ORBOST Lat: -37.69 Lon: 148.47 Height: 62.65 m
Data from the previous 72 hours. | See also: Recent months at Orbost
Date/Time
EST
Temp

°C
Wind Pressure Rain
since 9am
mm
Weather Cloud Vis
km
Sea
Height
m
Swell
Dir
 
Speed
knots
Gust
knots
hPa Trend Height
m
Period
s
Dir
05/05:00am 6.3 CALM 0 0 1018.0 - 0.0 - - - - - - -
05/04:30am 6.5 CALM 0 0 1018.0 - 0.0 - - - - - - -
05/04:00am 6.5 CALM 0 0 1017.9 - 0.0 - - - - - - -
05/03:30am 6.5 CALM 0 0 1018.1 - 0.0 - - - - - - -
05/03:00am 6.0 CALM 0 1 1018.2 - 0.0 - - - - - - -
05/02:30am 6.5 CALM 0 0 1018.2 - 0.0 - - - - - - -
05/02:00am 7.3 CALM 0 0 1018.2 - 0.0 - - - - - - -
05/01:30am 8.5 NE 1 2 1018.3 - 0.0 - - - - - - -
05/01:00am 9.0 NE 3 4 1018.4 - 0.0 - - - - - - -
05/12:30am 8.6 N 3 3 1018.5 - 0.0 - - - - - - -
05/12:00am 8.9 N 3 5 1018.5 - 0.0 - - - - - - -
 
Date/Time
EST
Temp

°C
Wind Pressure Rain
since 9am
mm
Weather Cloud Vis
km
Sea
Height
m
Swell
Dir
 
Speed
knots
Gust
knots
hPa Trend Height
m
Period
s
Dir
04/11:30pm 8.1 N 3 3 1018.4 - 0.0 - - - - - - -
04/11:00pm 8.7 N 3 3 1018.3 - 0.0 - - - - - - -
04/10:30pm 8.3 N 2 3 1018.3 - 0.0 - - - - - - -
04/10:00pm 8.6 NNE 3 4 1018.0 - 0.0 - - - - - - -
04/09:30pm 8.0 ENE 1 2 1018.1 - 0.0 - - - - - - -
04/09:00pm 8.5 WNW 1 3 1017.8 - 0.0 - - - - - - -
04/08:30pm 8.5 N 1 2 1017.9 - 0.0 - - - - - - -
04/08:00pm 9.8 NNE 2 3 1017.5 - 0.0 - - - - - - -
04/07:30pm 9.5 ENE 1 4 1017.3 - 0.0 - - - - - - -
04/07:00pm 10.2 NE 4 5 1017.0 - 0.0 - - - - - - -
04/06:30pm 10.2 ENE 3 4 1016.8 - 0.0 - - - - - - -
04/06:00pm 10.5 ENE 2 3 1016.5 - 0.0 - - - - - - -
04/05:30pm 11.9 E 2 3 1016.1 - 0.0 - - - - - - -
04/05:00pm 13.5 ESE 2 3 1015.8 - 0.0 - - - - - - -
04/04:30pm 14.5 ESE 2 5 1015.4 - 0.0 - - - - - - -
04/04:00pm 15.1 SSE 3 5 1015.2 - 0.0 - - - - - - -
04/03:30pm 15.4 SSE 4 6 1014.9 - 0.0 - - - - - - -
04/03:00pm 15.7 SSE 5 8 1014.7 - 0.0 - - - - - - -
04/02:30pm 15.9 S 6 9 1014.6 - 0.0 - - - - - - -
04/02:00pm 16.1 S 5 9 1014.4 - 0.0 - - - - - - -
04/01:30pm 16.2 SE 4 7 1014.3 - 0.0 - - - - - - -
04/01:00pm 16.2 S 5 9 1014.6 - 0.0 - - - - - - -
04/12:30pm 17.0 WSW 5 8 1014.9 - 0.0 - - - - - - -
04/12:00pm 16.5 SW 5 10 1015.1 - 0.0 - - - - - - -
04/11:30am 15.8 WSW 4 6 1015.1 - 0.0 - - - - - - -
04/11:00am 15.1 W 5 8 1015.2 - 0.0 - - - - - - -
04/10:30am 15.2 WNW 5 10 1015.4 - 0.0 - - - - - - -
04/10:00am 13.7 W 3 5 1015.3 - 0.0 - - - - - - -
04/09:30am 14.3 NW 2 4 1015.1 - 0.0 - - - - - - -
04/09:00am 13.7 NNW 2 4 1014.9 - 3.0 - - - - - - -
04/08:30am 12.7 NNW 3 5 1014.9 - - - - - - - - -
04/08:00am 10.4 NNW 3 4 1014.6 - - - - - - - - -
04/07:30am 10.6 NNW 4 7 1014.1 - - - - - - - - -
04/07:00am 9.2 N 5 6 1013.1 - - - - - - - - -
04/06:30am 10.6 NW 4 6 1012.6 - - - - - - - - -
04/06:00am 10.7 NNW 4 7 1012.6 - - - - - - - - -
04/05:30am 9.9 NW 2 3 1011.9 - - - - - - - - -
04/05:00am 10.2 N 3 5 1011.2 - - - - - - - - -
04/04:30am 10.4 NNE 5 7 1010.3 - - - - - - - - -
04/04:00am 10.9 N 5 7 1009.9 - - - - - - - - -
04/03:30am 10.8 N 5 7 1009.6 - - - - - - - - -
04/03:00am 10.9 N 5 6 1009.6 - 2.0 Recent precip. - - - - - -
04/02:30am 10.8 N 4 5 1009.4 - - - - - - - - -
04/02:00am 11.2 WNW 4 8 1009.2 - - - - - - - - -
04/01:30am 11.2 N 3 5 1009.0 - - - - - - - - -
04/01:00am 11.6 NW 4 8 1008.4 - - - - - - - - -
04/12:30am 12.2 W 4 7 1008.0 - - - - - - - - -
04/12:00am 12.5 W 5 9 1007.9 - - Rain - - - - - -
 
Date/Time
EST
Temp

°C
Wind Pressure Rain
since 9am
mm
Weather Cloud Vis
km
Sea
Height
m
Swell
Dir
 
Speed
knots
Gust
knots
hPa Trend Height
m
Period
s
Dir
03/11:30pm 13.0 W 6 10 1007.5 - - - - - - - - -
03/11:00pm 13.4 WSW 6 11 1007.2 - - - - - - - - -
03/10:30pm 13.3 WSW 6 10 1006.8 - - - - - - - - -
03/10:00pm 13.3 W 4 6 1006.9 - - - - - - - - -
03/09:30pm 13.1 WSW 7 15 1006.6 - - - - - - - - -
03/09:00pm 13.6 WSW 10 18 1006.1 - - Rain - - - - - -
03/08:30pm 14.5 WSW 12 19 1005.3 - - - - - - - - -
03/08:24pm 15.1 WSW 11 17 1004.9 - - - - - - - - -
03/08:00pm 20.1 NW 10 17 1003.4 - - - - - - - - -
03/07:30pm 20.1 NW 10 18 1002.5 - - - - - - - - -
03/07:00pm 19.5 NW 8 14 1001.9 - - - - - - - - -
03/06:30pm 20.2 NNW 11 17 1000.7 - - - - - - - - -
03/06:00pm 19.8 NNW 7 11 1000.3 - - - - - - - - -
03/05:30pm 19.8 NW 7 15 1000.0 - - - - - - - - -
03/05:00pm 20.4 NW 9 19 999.7 - - - - - - - - -
03/04:30pm 21.3 WNW 5 13 999.4 - - - - - - - - -
03/03:00pm 22.1 NNW 12 22 998.6 - 0.0 - - - - - - -
03/02:30pm 22.3 NNW 9 17 998.8 - 0.0 - - - - - - -
03/02:00pm 21.8 NNW 16 29 998.7 - 0.0 - - - - - - -
03/01:55pm 21.8 NNW 17 29 998.7 - 0.0 - - - - - - -
03/01:30pm 21.7 NNW 17 25 999.0 - 0.0 - - - - - - -
03/01:03pm 21.6 NNW 17 28 999.8 - 0.0 - - - - - - -
03/01:00pm 21.7 NNW 17 24 1000.1 - 0.0 - - - - - - -
03/12:50pm 21.6 NNW 15 25 1000.4 - 0.0 - - - - - - -
03/12:30pm 21.6 NNW 12 20 1000.7 - 0.0 - - - - - - -
03/12:00pm 21.3 NNW 12 20 1001.2 - 0.0 - - - - - - -
03/11:38am 21.0 NNW 16 27 1001.6 - 0.0 - - - - - - -
03/11:30am 20.9 NNW 19 26 1001.6 - 0.0 - - - - - - -
03/11:12am 20.9 NNW 16 26 1001.8 - 0.0 - - - - - - -
03/11:00am 20.9 NNW 13 23 1002.4 - 0.0 - - - - - - -
03/10:30am 20.5 NW 6 9 1003.2 - 0.0 - - - - - - -
03/10:00am 20.0 NNW 5 9 1003.4 - 0.0 - - - - - - -
03/09:30am 19.4 N 3 5 1003.8 - 0.0 - - - - - - -
03/09:00am 18.3 N 4 5 1004.1 - 0.0 - - - - - - -
03/08:30am 17.2 NNW 7 10 1004.5 - 0.0 - - - - - - -
03/08:00am 15.3 N 5 7 1004.7 - 0.0 - - - - - - -
03/07:30am 14.3 N 7 9 1004.7 - 0.0 - - - - - - -
03/07:00am 11.8 N 4 7 1005.0 - 0.0 - - - - - - -
03/06:30am 8.3 ESE 2 3 1005.5 - 0.0 - - - - - - -
03/06:00am 8.5 N 2 3 1005.6 - 0.0 - - - - - - -
03/05:30am 10.4 NNE 1 4 1006.0 - 0.0 - - - - - - -
03/05:00am 10.3 NE 1 3 1006.2 - 0.0 - - - - - - -
03/04:30am 9.9 CALM 0 1 1006.3 - 0.0 - - - - - - -
03/04:00am 11.5 NNE 2 5 1006.4 - 0.0 - - - - - - -
03/03:30am 11.2 WNW 1 4 1006.5 - 0.0 - - - - - - -
03/03:00am 12.1 N 5 6 1006.8 - 0.0 - - - - - - -
03/02:30am 11.4 NNW 5 7 1006.9 - 0.0 - - - - - - -
03/02:00am 12.7 N 6 9 1007.1 - 0.0 - - - - - - -
03/01:30am 13.1 NNW 5 7 1007.5 - 0.0 - - - - - - -
03/01:00am 13.4 NNW 7 13 1007.8 - 0.0 - - - - - - -
03/12:30am 12.9 NNW 6 10 1008.4 - 0.0 - - - - - - -
03/12:00am 11.4 N 5 7 1009.1 - 0.0 - - - - - - -
 
Date/Time
EST
Temp

°C
Wind Pressure Rain
since 9am
mm
Weather Cloud Vis
km
Sea
Height
m
Swell
Dir
 
Speed
knots
Gust
knots
hPa Trend Height
m
Period
s
Dir
02/11:30pm 10.1 N 3 5 1009.8 - 0.0 - - - - - - -
02/11:00pm 9.1 N 2 2 1010.2 - 0.0 - - - - - - -
02/10:30pm 9.2 NE 1 3 1010.4 - 0.0 - - - - - - -
02/10:00pm 10.4 CALM 0 0 1010.5 - 0.0 - - - - - - -
02/09:30pm 11.2 NE 3 3 1010.2 - 0.0 - - - - - - -
02/09:00pm 12.1 NNE 3 4 1010.5 - 0.0 - - - - - - -
02/08:30pm 12.0 N 3 5 1010.6 - 0.0 - - - - - - -
02/08:00pm 12.6 NNE 3 5 1010.8 - 0.0 - - - - - - -
02/07:30pm 13.0 N 5 7 1010.7 - 0.0 - - - - - - -
02/07:00pm 13.2 N 6 8 1010.9 - 0.0 - - - - - - -
02/06:30pm 13.5 N 6 9 1011.4 - 0.0 - - - - - - -
02/06:00pm 13.4 N 5 7 1011.6 - 0.0 - - - - - - -
02/05:30pm 14.1 NNW 9 12 1011.3 - 0.0 - - - - - - -
02/05:00pm 15.0 NNW 8 14 1011.3 - 0.0 - - - - - - -
02/04:30pm 16.0 NNW 10 17 1011.3 - 0.0 - - - - - - -
02/04:00pm 16.8 NNW 11 19 1011.1 - 0.0 - - - - - - -
02/03:30pm 17.5 NW 9 14 1011.1 - 0.0 - - - - - - -
02/03:00pm 18.3 NW 10 16 1010.6 - 0.0 - - - - - - -
02/02:30pm 18.3 WNW 8 13 1010.6 - 0.0 - - - - - - -
02/02:00pm 18.5 WNW 9 16 1010.6 - 0.0 - - - - - - -
02/01:30pm 18.6 NW 5 9 1010.9 - 0.0 - - - - - - -
02/01:00pm 18.1 NNW 5 9 1011.5 - 0.0 - - - - - - -
02/12:30pm 17.5 N 7 12 1011.9 - 0.0 - - - - - - -
02/12:00pm 17.0 NW 5 9 1012.5 - 0.0 - - - - - - -
02/11:30am 16.3 NW 5 8 1013.2 - 0.0 - - - - - - -
02/11:00am 15.8 NW 7 10 1013.6 - 0.0 - - - - - - -
02/10:30am 15.9 NW 5 8 1014.0 - 0.0 - - - - - - -
02/10:00am 14.3 W 2 3 1014.2 - 0.0 - - - - - - -
02/09:30am 12.7 CALM 0 1 1014.4 - 0.0 - - - - - - -
02/09:00am 10.7 CALM 0 2 1014.6 - 0.6 - - - - - - -
02/08:30am 8.7 CALM 0 0 1014.7 - 0.6 - - - - - - -
02/08:00am 7.4 NNW 2 3 1014.8 - 0.6 - - - - - - -
02/07:30am 6.9 NNE 4 5 1014.7 - 0.6 - - - - - - -
02/07:00am 6.6 NE 1 2 1014.4 - 0.6 - - - - - - -
02/06:30am 7.7 N 3 4 1014.4 - 0.6 - - - - - - -
02/06:00am 9.2 N 5 6 1014.3 - 0.6 - - - - - - -
02/05:30am 8.1 NNW 3 4 1014.2 - 0.6 - - - - - - -

Other Formats:

Comma delimited format used in spreadsheet applications
http://www.bom.gov.au/fwo/IDV60701/IDV60701.95918.axf

JavaScript Object Notation format (JSON) in row-major order
http://www.bom.gov.au/fwo/IDV60701/IDV60701.95918.json